Time;durP1;ratioP1;P1;durP2;ratioP2;P2;SDS_P1;SDS_P2;PMS_P1;PMS_P2;Temp;Humidity;BMP_temperature;BMP_pressure;BME280_temperature;BME280_humidity;BME280_pressure;Samples;Min_cycle;Max_cycle;Signal;HPM_P1;HPM_P2
2023/12/20 00:00:58;;;;;;;0.30;0.30;;;0.90;99.90;;;;;;5111195;28;20408;-80
2023/12/20 00:03:24;;;;;;;0.33;0.30;;;0.90;99.90;;;;;;5112085;28;20209;-81
2023/12/20 00:05:50;;;;;;;0.30;0.30;;;0.90;99.90;;;;;;5109820;28;20168;-81
2023/12/20 00:08:15;;;;;;;0.30;0.30;;;0.90;99.90;;;;;;5110263;28;20199;-80
2023/12/20 00:10:41;;;;;;;0.30;0.30;;;0.90;99.90;;;;;;5109977;28;20410;-81
2023/12/20 00:13:08;;;;;;;0.30;0.30;;;0.90;99.90;;;;;;5109951;28;20426;-81
2023/12/20 00:15:34;;;;;;;0.30;0.30;;;0.80;99.90;;;;;;5109699;28;20182;-81
2023/12/20 00:18:00;;;;;;;0.30;0.30;;;0.80;99.90;;;;;;5109961;28;20787;-80
2023/12/20 00:20:26;;;;;;;0.30;0.30;;;0.80;99.90;;;;;;5109538;28;20198;-81
2023/12/20 00:22:53;;;;;;;0.30;0.30;;;0.80;99.90;;;;;;5111317;28;20192;-81
2023/12/20 00:25:19;;;;;;;0.30;0.30;;;0.80;99.90;;;;;;5109091;28;20175;-79
2023/12/20 00:27:46;;;;;;;0.30;0.30;;;0.70;99.90;;;;;;5109447;28;20199;-81
2023/12/20 00:30:12;;;;;;;0.30;0.20;;;0.70;99.90;;;;;;5110279;28;20176;-79
2023/12/20 00:32:38;;;;;;;0.30;0.20;;;0.60;99.90;;;;;;5109735;28;20188;-80
2023/12/20 00:35:04;;;;;;;0.30;0.30;;;0.60;99.90;;;;;;5109271;28;20462;-80
2023/12/20 00:37:29;;;;;;;0.30;0.30;;;0.60;99.90;;;;;;5109508;28;20536;-81
2023/12/20 00:39:55;;;;;;;0.30;0.30;;;0.60;99.90;;;;;;5111116;28;20235;-81
2023/12/20 00:42:22;;;;;;;0.30;0.30;;;0.60;99.90;;;;;;5109112;28;20914;-80
2023/12/20 00:44:48;;;;;;;0.30;0.30;;;0.50;99.90;;;;;;5109036;28;20223;-81
2023/12/20 00:47:13;;;;;;;0.30;0.30;;;0.60;99.90;;;;;;5111022;28;20580;-80
2023/12/20 00:49:39;;;;;;;0.30;0.30;;;0.50;99.90;;;;;;5109360;28;20218;-81
2023/12/20 00:52:05;;;;;;;0.30;0.30;;;0.60;99.90;;;;;;5110502;28;20180;-81
2023/12/20 00:54:31;;;;;;;0.30;0.30;;;0.60;99.90;;;;;;5109132;28;20295;-81
2023/12/20 00:56:56;;;;;;;0.30;0.30;;;0.60;99.90;;;;;;5110213;28;20232;-80
2023/12/20 00:59:22;;;;;;;0.30;0.30;;;0.50;99.90;;;;;;5109279;28;20191;-80
2023/12/20 01:01:47;;;;;;;0.30;0.30;;;0.50;99.90;;;;;;5110354;28;20221;-80
2023/12/20 01:04:13;;;;;;;0.30;0.30;;;0.50;99.90;;;;;;5109550;28;20203;-81
2023/12/20 01:06:39;;;;;;;0.30;0.30;;;0.40;99.90;;;;;;5110173;28;20164;-81
2023/12/20 01:09:04;;;;;;;0.37;0.33;;;0.50;99.90;;;;;;5110693;28;20250;-81
2023/12/20 01:11:30;;;;;;;0.30;0.30;;;0.50;99.90;;;;;;5108647;28;20221;-80
2023/12/20 01:13:56;;;;;;;0.30;0.30;;;0.50;99.90;;;;;;5110349;28;20223;-81
2023/12/20 01:16:21;;;;;;;0.30;0.30;;;0.50;99.90;;;;;;5108631;28;20257;-80
2023/12/20 01:18:47;;;;;;;0.30;0.30;;;0.50;99.90;;;;;;5110165;28;20231;-80
2023/12/20 01:21:13;;;;;;;0.30;0.30;;;0.50;99.90;;;;;;5110297;28;20250;-80
2023/12/20 01:23:38;;;;;;;0.30;0.30;;;0.40;99.90;;;;;;5110451;28;20226;-81
2023/12/20 01:26:05;;;;;;;0.30;0.30;;;0.40;99.90;;;;;;5108038;28;20183;-81
2023/12/20 01:28:31;;;;;;;0.30;0.30;;;0.40;99.90;;;;;;5107893;28;20207;-81
2023/12/20 01:30:57;;;;;;;0.30;0.30;;;0.40;99.90;;;;;;5109306;28;20756;-79
2023/12/20 01:33:23;;;;;;;0.30;0.30;;;0.40;99.90;;;;;;5108783;28;20441;-81
2023/12/20 01:35:49;;;;;;;0.30;0.30;;;0.40;99.90;;;;;;5108413;28;20207;-81
2023/12/20 01:38:14;;;;;;;0.30;0.30;;;0.40;99.90;;;;;;5110327;28;20192;-81
2023/12/20 01:40:40;;;;;;;0.30;0.30;;;0.40;99.90;;;;;;5114510;28;20391;-80
2023/12/20 01:43:09;;;;;;;0.30;0.30;;;0.40;99.90;;;;;;5117026;27;20196;-81
2023/12/20 01:45:35;;;;;;;0.30;0.30;;;0.40;99.90;;;;;;5115048;28;20206;-81
2023/12/20 01:48:02;;;;;;;0.30;0.30;;;0.40;99.90;;;;;;5116852;27;20580;-80
2023/12/20 01:50:29;;;;;;;0.30;0.30;;;0.40;99.90;;;;;;5115063;28;20602;-81
2023/12/20 01:52:59;;;;;;;0.30;0.30;;;0.40;99.90;;;;;;5116786;27;20196;-80
2023/12/20 01:55:27;;;;;;;0.30;0.30;;;0.40;99.90;;;;;;5115244;28;20180;-80
2023/12/20 01:57:53;;;;;;;0.30;0.30;;;0.30;99.90;;;;;;5115317;28;20248;-81
2023/12/20 02:00:23;;;;;;;0.30;0.30;;;0.40;99.90;;;;;;5115381;28;20179;-80
2023/12/20 02:02:50;;;;;;;0.30;0.30;;;0.30;99.90;;;;;;5115286;28;20207;-80
2023/12/20 02:05:16;;;;;;;0.30;0.30;;;0.40;99.90;;;;;;5116465;27;20180;-81
2023/12/20 02:07:42;;;;;;;0.30;0.30;;;0.40;99.90;;;;;;5115136;28;20206;-80
2023/12/20 02:10:08;;;;;;;0.30;0.30;;;0.30;99.90;;;;;;5114990;28;20207;-79
2023/12/20 02:12:34;;;;;;;0.30;0.30;;;0.30;99.90;;;;;;5116659;27;20398;-81
2023/12/20 02:14:59;;;;;;;0.30;0.30;;;0.40;99.90;;;;;;5115131;28;20689;-81
2023/12/20 02:17:26;;;;;;;0.30;0.30;;;0.30;99.90;;;;;;5116276;27;20670;-81
2023/12/20 02:19:51;;;;;;;0.30;0.30;;;0.30;99.90;;;;;;5115120;27;20203;-80
2023/12/20 02:22:17;;;;;;;0.30;0.30;;;0.30;99.90;;;;;;5116389;27;20168;-81
2023/12/20 02:24:43;;;;;;;0.30;0.30;;;0.30;99.90;;;;;;5116205;27;20668;-80
2023/12/20 02:27:09;;;;;;;0.30;0.30;;;0.30;99.90;;;;;;5114588;28;20245;-81
2023/12/20 02:29:35;;;;;;;0.30;0.30;;;0.30;99.90;;;;;;5116412;27;20192;-79
2023/12/20 02:32:01;;;;;;;0.30;0.30;;;0.30;99.90;;;;;;5115209;27;20406;-81
2023/12/20 02:34:27;;;;;;;0.30;0.30;;;0.20;99.90;;;;;;5114750;27;20716;-81
2023/12/20 02:36:53;;;;;;;0.30;0.30;;;0.20;99.90;;;;;;5114593;28;20259;-80
2023/12/20 02:39:19;;;;;;;0.30;0.30;;;0.20;99.90;;;;;;5115101;28;20192;-81
2023/12/20 02:41:45;;;;;;;0.30;0.20;;;0.20;99.90;;;;;;5114788;28;20800;-81
2023/12/20 02:44:11;;;;;;;0.30;0.30;;;0.20;99.90;;;;;;5115138;28;20207;-79
2023/12/20 02:46:36;;;;;;;0.30;0.30;;;0.20;99.90;;;;;;5114934;28;20262;-81
2023/12/20 02:49:02;;;;;;;0.30;0.30;;;0.20;99.90;;;;;;5116562;27;20294;-81
2023/12/20 02:51:28;;;;;;;0.93;0.93;;;0.20;99.90;;;;;;5111130;28;20815;-79
2023/12/20 02:53:53;;;;;;;0.30;0.30;;;0.20;99.90;;;;;;5113199;28;20226;-81
2023/12/20 02:56:19;;;;;;;0.30;0.30;;;0.20;99.90;;;;;;5112712;28;20555;-81
2023/12/20 02:58:45;;;;;;;0.30;0.30;;;0.20;99.90;;;;;;5113059;28;20804;-80
2023/12/20 03:01:10;;;;;;;0.30;0.30;;;0.20;99.90;;;;;;5112930;28;20347;-80
2023/12/20 03:03:36;;;;;;;0.30;0.30;;;0.10;99.90;;;;;;5111708;28;20212;-80
2023/12/20 03:06:02;;;;;;;0.30;0.30;;;0.20;99.90;;;;;;5110889;28;20404;-81
2023/12/20 03:08:27;;;;;;;0.30;0.30;;;0.20;99.90;;;;;;5112410;28;20195;-80
2023/12/20 03:10:53;;;;;;;0.30;0.30;;;0.10;99.90;;;;;;5112186;28;20163;-81
2023/12/20 03:13:19;;;;;;;0.30;0.30;;;0.10;99.90;;;;;;5112537;28;20212;-80
2023/12/20 03:15:45;;;;;;;0.30;0.30;;;0.10;99.90;;;;;;5110777;28;20641;-80
2023/12/20 03:18:11;;;;;;;0.30;0.30;;;0.10;99.90;;;;;;5112665;28;20250;-80
2023/12/20 03:20:37;;;;;;;0.30;0.30;;;0.10;99.90;;;;;;5112061;28;20164;-79
2023/12/20 03:23:03;;;;;;;0.30;0.30;;;0.00;99.90;;;;;;5112424;28;20192;-81
2023/12/20 03:25:29;;;;;;;0.30;0.30;;;0.00;99.90;;;;;;5110565;28;20382;-81
2023/12/20 03:27:55;;;;;;;0.30;0.30;;;0.00;99.90;;;;;;5110486;28;20199;-81
2023/12/20 03:30:21;;;;;;;0.30;0.30;;;0.00;99.90;;;;;;5112240;28;20371;-80
2023/12/20 03:32:47;;;;;;;0.30;0.30;;;0.00;99.90;;;;;;5110519;28;20448;-81
2023/12/20 03:35:12;;;;;;;0.30;0.30;;;0.00;99.90;;;;;;5109764;28;20211;-80
2023/12/20 03:37:38;;;;;;;0.30;0.30;;;-0.10;99.90;;;;;;5112350;28;20795;-81
2023/12/20 03:40:04;;;;;;;0.30;0.30;;;0.00;99.90;;;;;;5112008;28;20206;-80
2023/12/20 03:42:30;;;;;;;0.30;0.20;;;0.00;99.90;;;;;;5110842;28;20168;-81
2023/12/20 03:44:55;;;;;;;0.30;0.30;;;0.00;99.90;;;;;;5110587;28;20693;-81
2023/12/20 03:47:21;;;;;;;0.30;0.30;;;0.00;99.90;;;;;;5111840;27;20263;-81
2023/12/20 03:49:47;;;;;;;0.30;0.30;;;0.00;99.90;;;;;;5111788;28;20226;-81
2023/12/20 03:52:13;;;;;;;0.30;0.30;;;0.00;99.90;;;;;;5110225;28;20928;-80
2023/12/20 03:54:38;;;;;;;0.30;0.30;;;-0.10;99.90;;;;;;5110351;28;20526;-81
2023/12/20 03:57:04;;;;;;;0.30;0.30;;;0.00;99.90;;;;;;5111417;28;20797;-80
2023/12/20 03:59:34;;;;;;;0.30;0.27;;;0.00;99.90;;;;;;5111964;28;20709;-80
2023/12/20 04:02:00;;;;;;;0.30;0.30;;;-0.10;99.90;;;;;;5111143;28;20175;-81
2023/12/20 04:04:25;;;;;;;0.30;0.30;;;0.00;99.90;;;;;;5111684;28;20192;-81
2023/12/20 04:06:51;;;;;;;0.30;0.30;;;0.00;99.90;;;;;;5109801;28;20171;-81
2023/12/20 04:09:17;;;;;;;0.30;0.30;;;0.00;99.90;;;;;;5110443;28;20206;-81
2023/12/20 04:11:43;;;;;;;0.30;0.30;;;0.00;99.90;;;;;;5109753;28;20439;-80
2023/12/20 04:14:10;;;;;;;0.30;0.30;;;0.00;99.90;;;;;;5111599;28;20821;-80
2023/12/20 04:16:36;;;;;;;0.30;0.30;;;0.00;99.90;;;;;;5111144;28;20184;-79
2023/12/20 04:19:02;;;;;;;0.30;0.30;;;-0.10;99.90;;;;;;5111351;28;20263;-80
2023/12/20 04:21:27;;;;;;;0.30;0.30;;;-0.10;99.90;;;;;;5109961;28;20172;-79
2023/12/20 04:23:53;;;;;;;0.30;0.30;;;0.00;99.90;;;;;;5111765;28;20206;-79
2023/12/20 04:26:19;;;;;;;0.30;0.30;;;0.00;99.90;;;;;;5109511;28;20172;-79
2023/12/20 04:28:44;;;;;;;0.30;0.30;;;0.00;99.90;;;;;;5110761;28;20208;-80
2023/12/20 04:31:10;;;;;;;0.30;0.30;;;0.00;99.90;;;;;;5109470;28;20637;-80
2023/12/20 04:33:35;;;;;;;0.30;0.30;;;0.00;99.90;;;;;;5109821;28;20257;-81
2023/12/20 04:36:01;;;;;;;0.30;0.30;;;0.00;99.90;;;;;;5108758;28;20168;-81
2023/12/20 04:38:27;;;;;;;0.30;0.20;;;0.00;99.90;;;;;;5110999;28;20230;-81
2023/12/20 04:40:52;;;;;;;0.30;0.30;;;0.00;99.90;;;;;;5110695;28;20172;-79
2023/12/20 04:43:18;;;;;;;0.30;0.30;;;0.00;99.90;;;;;;5111196;28;20196;-81
2023/12/20 04:45:43;;;;;;;0.30;0.20;;;0.00;99.90;;;;;;5109090;28;20172;-81
2023/12/20 04:48:09;;;;;;;0.30;0.30;;;-0.10;99.90;;;;;;5111265;28;20594;-81
2023/12/20 04:50:35;;;;;;;0.30;0.27;;;0.00;99.90;;;;;;5109064;28;20184;-80
2023/12/20 04:53:01;;;;;;;0.30;0.30;;;0.00;99.90;;;;;;5110868;28;20704;-81
2023/12/20 04:55:26;;;;;;;0.30;0.30;;;0.00;99.90;;;;;;5109014;28;20176;-80
2023/12/20 04:57:52;;;;;;;0.30;0.30;;;0.00;99.90;;;;;;5109316;28;20685;-81
2023/12/20 05:00:18;;;;;;;0.30;0.30;;;0.00;99.90;;;;;;5109188;28;20656;-80
2023/12/20 05:02:44;;;;;;;0.30;0.30;;;0.00;99.90;;;;;;5108279;28;20434;-80
2023/12/20 05:05:09;;;;;;;0.30;0.30;;;0.00;99.90;;;;;;5108464;28;20482;-81
2023/12/20 05:07:35;;;;;;;0.30;0.30;;;0.10;99.90;;;;;;5109232;28;20188;-81
2023/12/20 05:10:01;;;;;;;0.30;0.30;;;0.00;99.90;;;;;;5109117;28;20521;-79
2023/12/20 05:12:27;;;;;;;0.30;0.30;;;0.10;99.90;;;;;;5108745;28;20176;-80
2023/12/20 05:14:53;;;;;;;0.30;0.30;;;0.10;99.90;;;;;;5107833;28;20207;-79
2023/12/20 05:17:20;;;;;;;0.30;0.30;;;0.10;99.90;;;;;;5104855;28;20673;-79
2023/12/20 05:19:46;;;;;;;0.30;0.30;;;0.10;99.90;;;;;;5089240;28;20228;-81
2023/12/20 05:22:12;;;;;;;0.30;0.30;;;0.10;99.90;;;;;;5080328;28;20194;-79
2023/12/20 05:24:37;;;;;;;0.30;0.20;;;0.10;99.90;;;;;;5095246;28;20421;-79
2023/12/20 05:27:03;;;;;;;0.30;0.30;;;0.10;99.90;;;;;;5086379;28;20407;-81
2023/12/20 05:29:29;;;;;;;0.30;0.20;;;0.10;99.90;;;;;;5088599;28;20252;-80
2023/12/20 05:31:55;;;;;;;0.30;0.23;;;0.10;99.90;;;;;;5095328;28;20175;-81
2023/12/20 05:34:21;;;;;;;0.30;0.20;;;0.10;99.90;;;;;;5093230;28;20227;-80
2023/12/20 05:36:46;;;;;;;0.30;0.30;;;0.10;99.90;;;;;;5101331;28;20534;-81
2023/12/20 05:39:12;;;;;;;0.30;0.20;;;0.10;99.90;;;;;;5100651;28;20415;-80
2023/12/20 05:41:37;;;;;;;0.30;0.30;;;0.20;99.90;;;;;;5094466;28;20271;-80
2023/12/20 05:44:03;;;;;;;0.30;0.30;;;0.10;99.90;;;;;;5092946;28;20546;-79
2023/12/20 05:46:29;;;;;;;0.30;0.30;;;0.10;99.90;;;;;;5085622;28;20539;-81
2023/12/20 05:48:55;;;;;;;0.30;0.30;;;0.10;99.90;;;;;;5086976;28;20208;-81
2023/12/20 05:51:21;;;;;;;0.30;0.30;;;0.10;99.90;;;;;;5098935;28;20172;-81
2023/12/20 05:53:47;;;;;;;0.30;0.30;;;0.10;99.90;;;;;;5056094;28;20419;-80
2023/12/20 05:56:12;;;;;;;0.30;0.30;;;0.10;99.90;;;;;;5056182;28;20547;-81
2023/12/20 05:58:39;;;;;;;0.30;0.30;;;0.10;99.90;;;;;;5074263;28;20228;-81
2023/12/20 06:01:07;;;;;;;0.30;0.30;;;0.10;99.90;;;;;;5093290;28;20200;-79
2023/12/20 06:03:33;;;;;;;0.30;0.30;;;0.10;99.90;;;;;;5088443;28;20200;-81
2023/12/20 06:06:00;;;;;;;0.30;0.30;;;0.10;99.90;;;;;;5081797;28;20718;-81
2023/12/20 06:08:26;;;;;;;0.30;0.30;;;0.10;99.90;;;;;;5090302;28;20733;-80
2023/12/20 06:10:51;;;;;;;0.30;0.30;;;0.10;99.90;;;;;;5087824;28;20172;-80
2023/12/20 06:13:17;;;;;;;0.30;0.30;;;0.10;99.90;;;;;;5086827;28;20292;-79
2023/12/20 06:15:43;;;;;;;0.30;0.30;;;0.10;99.90;;;;;;5085270;28;20168;-80
2023/12/20 06:18:08;;;;;;;0.30;0.30;;;0.00;99.90;;;;;;5088487;28;20668;-81
2023/12/20 06:20:35;;;;;;;0.30;0.30;;;0.00;99.90;;;;;;5081872;28;20220;-80
2023/12/20 06:23:01;;;;;;;0.30;0.30;;;0.10;99.90;;;;;;5087706;28;20645;-81
2023/12/20 06:25:27;;;;;;;0.30;0.30;;;0.00;99.90;;;;;;5080950;28;20268;-81
2023/12/20 06:27:52;;;;;;;0.30;0.30;;;0.10;99.90;;;;;;5081541;28;20215;-81
2023/12/20 06:30:18;;;;;;;0.30;0.30;;;0.00;99.90;;;;;;5096123;27;20176;-80
2023/12/20 06:32:44;;;;;;;0.30;0.30;;;0.00;99.90;;;;;;5092049;28;20192;-80
2023/12/20 06:35:09;;;;;;;0.30;0.30;;;0.10;99.90;;;;;;5088794;28;20196;-81
2023/12/20 06:37:35;;;;;;;0.30;0.30;;;0.10;99.90;;;;;;5090734;28;20266;-79
2023/12/20 06:40:01;;;;;;;0.30;0.30;;;0.10;99.90;;;;;;5084388;28;20184;-81
2023/12/20 06:42:27;;;;;;;0.30;0.30;;;0.10;99.90;;;;;;5060826;28;20392;-80
2023/12/20 06:44:52;;;;;;;0.30;0.30;;;0.10;99.90;;;;;;5086770;28;20513;-81
2023/12/20 06:47:18;;;;;;;0.30;0.30;;;0.10;99.90;;;;;;5090702;28;20176;-81
2023/12/20 06:49:44;;;;;;;0.30;0.30;;;0.10;99.90;;;;;;5079346;28;20200;-80
2023/12/20 06:52:10;;;;;;;0.30;0.30;;;0.10;99.90;;;;;;5066564;28;20188;-81
2023/12/20 06:54:36;;;;;;;0.30;0.30;;;0.10;99.90;;;;;;5082345;28;20212;-80
2023/12/20 06:57:02;;;;;;;0.30;0.30;;;0.10;99.90;;;;;;5081312;28;20220;-81
2023/12/20 06:59:29;;;;;;;0.30;0.30;;;0.10;99.90;;;;;;5088637;28;20450;-81
2023/12/20 07:01:54;;;;;;;0.30;0.30;;;0.10;99.90;;;;;;5088837;28;20182;-79
2023/12/20 07:04:21;;;;;;;0.30;0.30;;;0.10;99.90;;;;;;5085741;28;20192;-80
2023/12/20 07:06:57;;;;;;;0.30;0.30;;;0.10;99.90;;;;;;5096156;27;20181;-81
2023/12/20 07:09:23;;;;;;;0.30;0.30;;;0.10;99.90;;;;;;5081471;28;20431;-81
2023/12/20 07:11:49;;;;;;;0.30;0.30;;;0.10;99.90;;;;;;5087798;28;20399;-79
2023/12/20 07:14:14;;;;;;;0.30;0.30;;;0.10;99.90;;;;;;5088571;28;20291;-81
2023/12/20 07:16:40;;;;;;;0.30;0.30;;;0.10;99.90;;;;;;5083999;28;20401;-81
2023/12/20 07:19:06;;;;;;;0.30;0.30;;;0.20;99.90;;;;;;5085894;28;20231;-80
2023/12/20 07:21:32;;;;;;;0.30;0.30;;;0.20;99.90;;;;;;5081046;28;20496;-81
2023/12/20 07:23:57;;;;;;;0.30;0.30;;;0.20;99.90;;;;;;5054679;28;20443;-81
2023/12/20 07:26:23;;;;;;;0.30;0.30;;;0.20;99.90;;;;;;5057128;28;20697;-80
2023/12/20 07:28:49;;;;;;;0.30;0.30;;;0.20;99.90;;;;;;5056191;28;20217;-80
2023/12/20 07:31:18;;;;;;;0.30;0.30;;;0.30;99.90;;;;;;5057708;28;20192;-79
2023/12/20 07:33:44;;;;;;;0.30;0.30;;;0.30;99.90;;;;;;5055367;28;20751;-79
2023/12/20 07:36:10;;;;;;;0.30;0.30;;;0.40;99.90;;;;;;5057227;27;20266;-81
2023/12/20 07:38:36;;;;;;;0.30;0.20;;;0.40;99.90;;;;;;5087656;28;20193;-79
2023/12/20 07:41:01;;;;;;;0.30;0.30;;;0.40;99.90;;;;;;5092275;28;20515;-80
2023/12/20 07:43:27;;;;;;;0.30;0.27;;;0.40;99.90;;;;;;5098803;28;20483;-80
2023/12/20 07:45:52;;;;;;;0.30;0.30;;;0.40;99.90;;;;;;5081799;28;20598;-80
2023/12/20 07:48:18;;;;;;;0.30;0.30;;;0.50;99.90;;;;;;5086868;28;20241;-81
2023/12/20 07:50:44;;;;;;;0.30;0.30;;;0.50;99.90;;;;;;5079899;28;20344;-78
2023/12/20 07:53:09;;;;;;;0.30;0.30;;;0.50;99.90;;;;;;5089754;28;20305;-79
2023/12/20 07:55:35;;;;;;;0.30;0.20;;;0.60;99.90;;;;;;5085225;28;20188;-80
2023/12/20 07:58:01;;;;;;;0.30;0.30;;;0.60;99.90;;;;;;5082808;28;20763;-81
2023/12/20 08:00:27;;;;;;;0.30;0.20;;;0.60;99.90;;;;;;5089478;28;20167;-81
2023/12/20 08:02:52;;;;;;;0.30;0.30;;;0.60;99.90;;;;;;5082421;28;20215;-80
2023/12/20 08:05:18;;;;;;;0.30;0.27;;;0.80;99.90;;;;;;5097983;28;20173;-75
2023/12/20 08:07:44;;;;;;;0.30;0.20;;;0.80;99.90;;;;;;5104369;28;20180;-76
2023/12/20 08:10:10;;;;;;;0.30;0.20;;;0.70;99.90;;;;;;5079580;28;20191;-77
2023/12/20 08:12:36;;;;;;;0.30;0.30;;;0.70;99.90;;;;;;5084648;28;20177;-74
2023/12/20 08:15:02;;;;;;;0.30;0.30;;;0.70;99.90;;;;;;5087631;28;20230;-77
2023/12/20 08:17:27;;;;;;;0.30;0.30;;;0.70;99.90;;;;;;5078966;28;20187;-75
2023/12/20 08:19:53;;;;;;;0.30;0.30;;;0.70;99.90;;;;;;5091174;28;20219;-76
2023/12/20 08:22:18;;;;;;;0.30;0.20;;;0.70;99.90;;;;;;5065698;28;20196;-75
2023/12/20 08:24:44;;;;;;;0.30;0.30;;;0.70;99.90;;;;;;5081750;28;21102;-80
2023/12/20 08:27:10;;;;;;;0.30;0.20;;;0.90;99.90;;;;;;5094217;28;20256;-79
2023/12/20 08:29:36;;;;;;;0.30;0.20;;;0.90;99.90;;;;;;5093350;28;20470;-75
2023/12/20 08:32:02;;;;;;;0.30;0.30;;;1.00;99.90;;;;;;5069404;28;20374;-79
2023/12/20 08:34:28;;;;;;;0.30;0.30;;;1.00;99.90;;;;;;5091469;28;20218;-78
2023/12/20 08:36:53;;;;;;;0.30;0.30;;;1.00;99.90;;;;;;5089500;28;20188;-75
2023/12/20 08:39:19;;;;;;;0.30;0.20;;;1.10;99.90;;;;;;5081183;28;20208;-79
2023/12/20 08:41:45;;;;;;;0.30;0.30;;;1.10;99.90;;;;;;5088495;28;20405;-75
2023/12/20 08:44:11;;;;;;;0.30;0.30;;;1.10;99.90;;;;;;5109853;27;20734;-78
2023/12/20 08:46:36;;;;;;;0.30;0.30;;;1.20;99.90;;;;;;5094968;28;20195;-77
2023/12/20 08:49:02;;;;;;;0.30;0.30;;;1.20;99.90;;;;;;5093440;28;20839;-77
2023/12/20 08:51:29;;;;;;;0.30;0.30;;;1.20;99.90;;;;;;5089712;28;20173;-77
2023/12/20 08:53:54;;;;;;;0.30;0.30;;;1.20;99.90;;;;;;5080307;28;20227;-77
2023/12/20 08:56:20;;;;;;;0.30;0.30;;;1.20;99.90;;;;;;5080011;28;20755;-75
2023/12/20 08:58:47;;;;;;;0.30;0.30;;;1.30;99.90;;;;;;5084932;28;20954;-78
2023/12/20 09:01:13;;;;;;;0.30;0.30;;;1.30;99.90;;;;;;5084101;28;20454;-78
2023/12/20 09:03:40;;;;;;;0.30;0.20;;;1.30;99.90;;;;;;5076696;28;20204;-80
2023/12/20 09:06:06;;;;;;;0.30;0.30;;;1.30;99.90;;;;;;5079347;28;20180;-78
2023/12/20 09:08:31;;;;;;;0.30;0.30;;;1.40;99.90;;;;;;5088995;28;20766;-75
2023/12/20 09:10:57;;;;;;;0.30;0.30;;;1.40;99.90;;;;;;5080663;28;20168;-78
2023/12/20 09:13:28;;;;;;;0.30;0.20;;;1.40;99.90;;;;;;5090008;28;20463;-75
2023/12/20 09:15:55;;;;;;;0.30;0.30;;;1.40;99.90;;;;;;5081824;28;20188;-75
2023/12/20 09:18:21;;;;;;;0.30;0.20;;;1.50;99.90;;;;;;5075512;28;20238;-75
2023/12/20 09:20:47;;;;;;;0.30;0.30;;;1.50;99.90;;;;;;5077301;28;20561;-77
2023/12/20 09:23:12;;;;;;;0.30;0.30;;;1.60;99.90;;;;;;5078110;28;20204;-78
2023/12/20 09:25:38;;;;;;;0.30;0.30;;;1.60;99.90;;;;;;5078212;28;20797;-75
2023/12/20 09:28:04;;;;;;;0.30;0.30;;;1.60;99.90;;;;;;5083119;28;20214;-76
2023/12/20 09:30:30;;;;;;;0.30;0.30;;;1.60;99.90;;;;;;5084134;28;20333;-75
2023/12/20 09:32:55;;;;;;;0.30;0.30;;;1.70;99.90;;;;;;5088531;28;20247;-76
2023/12/20 09:35:21;;;;;;;0.30;0.20;;;1.70;99.90;;;;;;5078863;28;20216;-75
2023/12/20 09:37:48;;;;;;;0.30;0.20;;;1.70;99.90;;;;;;5084127;28;20185;-77
2023/12/20 09:40:14;;;;;;;0.30;0.30;;;1.70;99.90;;;;;;5085701;28;20641;-78
2023/12/20 09:42:50;;;;;;;0.30;0.30;;;1.80;99.90;;;;;;5080450;28;20191;-78
2023/12/20 09:45:20;;;;;;;0.30;0.30;;;1.80;99.90;;;;;;5080999;28;20416;-73
2023/12/20 09:47:46;;;;;;;0.30;0.30;;;1.80;99.90;;;;;;5082990;28;20185;-77
2023/12/20 09:50:14;;;;;;;0.30;0.20;;;1.80;99.90;;;;;;5079158;28;20275;-76
2023/12/20 09:52:42;;;;;;;0.30;0.30;;;1.80;99.90;;;;;;5078803;28;20821;-75
2023/12/20 09:55:08;;;;;;;0.30;0.30;;;1.80;99.90;;;;;;5046760;28;21776;-74
2023/12/20 09:57:34;;;;;;;0.30;0.30;;;1.80;99.90;;;;;;5047128;28;20192;-74
2023/12/20 09:59:59;;;;;;;0.30;0.30;;;1.80;99.90;;;;;;5048478;28;20402;-76
2023/12/20 10:02:27;;;;;;;0.30;0.27;;;1.80;99.90;;;;;;5049255;28;20184;-74
2023/12/20 10:04:54;;;;;;;0.30;0.30;;;1.80;99.90;;;;;;5052826;28;21591;-76
2023/12/20 10:07:20;;;;;;;0.30;0.20;;;1.90;99.90;;;;;;5079940;28;20189;-74
2023/12/20 10:09:47;;;;;;;0.30;0.30;;;1.90;99.90;;;;;;5084072;28;20215;-76
2023/12/20 10:12:13;;;;;;;0.30;0.30;;;1.80;99.90;;;;;;5083283;28;20193;-72
2023/12/20 10:14:41;;;;;;;0.30;0.30;;;1.80;99.90;;;;;;5086571;28;20269;-80
2023/12/20 10:17:08;;;;;;;0.30;0.25;;;1.80;99.90;;;;;;5077670;28;20204;-77
2023/12/20 10:19:34;;;;;;;0.30;0.30;;;1.90;99.90;;;;;;5082169;28;20224;-73
2023/12/20 10:22:00;;;;;;;0.30;0.30;;;1.90;99.90;;;;;;5087659;28;20200;-74
2023/12/20 10:24:28;;;;;;;0.30;0.30;;;1.90;99.90;;;;;;5068197;28;20997;-75
2023/12/20 10:27:04;;;;;;;0.30;0.20;;;1.90;99.90;;;;;;5082456;28;20264;-78
2023/12/20 10:29:36;;;;;;;0.30;0.20;;;1.90;99.90;;;;;;5087010;28;20196;-76
2023/12/20 10:32:22;;;;;;;0.30;0.20;;;1.90;99.90;;;;;;5085653;28;20203;-76
2023/12/20 10:34:48;;;;;;;0.30;0.30;;;1.90;99.90;;;;;;5088013;28;20203;-76
2023/12/20 10:37:13;;;;;;;0.30;0.20;;;2.00;99.90;;;;;;5092905;28;20184;-76
2023/12/20 10:39:42;;;;;;;0.30;0.20;;;2.00;99.90;;;;;;5075382;28;20196;-76
2023/12/20 10:42:09;;;;;;;0.30;0.30;;;2.00;99.90;;;;;;5088643;28;20195;-77
2023/12/20 10:44:35;;;;;;;0.30;0.22;;;2.00;99.90;;;;;;5087098;28;20235;-77
2023/12/20 10:47:01;;;;;;;0.30;0.20;;;2.00;99.90;;;;;;5085294;28;20196;-77
2023/12/20 10:49:28;;;;;;;0.30;0.20;;;2.00;99.90;;;;;;5088176;28;20230;-77
2023/12/20 10:51:57;;;;;;;0.30;0.20;;;2.00;99.90;;;;;;5098550;28;20174;-77
2023/12/20 10:54:22;;;;;;;0.30;0.20;;;2.00;99.90;;;;;;5101139;28;20203;-77
2023/12/20 10:56:51;;;;;;;0.30;0.30;;;2.00;99.90;;;;;;5092946;28;20179;-77
2023/12/20 10:59:19;;;;;;;0.30;0.20;;;1.90;99.90;;;;;;5078213;28;20196;-77
2023/12/20 11:01:47;;;;;;;0.30;0.20;;;1.90;99.90;;;;;;5095538;28;20318;-77
2023/12/20 11:04:34;;;;;;;0.30;0.20;;;1.90;99.90;;;;;;5087499;28;20208;-77
2023/12/20 11:07:16;;;;;;;0.30;0.20;;;1.90;99.90;;;;;;5083189;28;20192;-77
2023/12/20 11:09:49;;;;;;;0.30;0.20;;;1.80;99.90;;;;;;5088453;28;20191;-77
2023/12/20 11:12:44;;;;;;;0.30;0.20;;;1.80;99.90;;;;;;5090271;28;20778;-77
2023/12/20 11:15:10;;;;;;;0.30;0.30;;;1.90;99.90;;;;;;5094979;28;20295;-77
2023/12/20 11:17:39;;;;;;;0.30;0.20;;;1.90;99.90;;;;;;5103766;28;20184;-77
2023/12/20 11:20:06;;;;;;;0.30;0.30;;;1.90;99.90;;;;;;5091792;28;20214;-77
2023/12/20 11:22:33;;;;;;;0.30;0.20;;;2.00;99.90;;;;;;5075741;28;20280;-76
2023/12/20 11:25:10;;;;;;;0.30;0.20;;;2.00;99.90;;;;;;5085344;27;20184;-76
2023/12/20 11:27:43;;;;;;;0.30;0.20;;;2.10;99.90;;;;;;5088403;28;20192;-76
2023/12/20 11:30:09;;;;;;;0.30;0.20;;;2.20;99.90;;;;;;5082084;28;20184;-76
2023/12/20 11:32:36;;;;;;;0.30;0.30;;;2.20;99.90;;;;;;5081956;28;20259;-76
2023/12/20 11:35:08;;;;;;;0.30;0.20;;;2.30;99.90;;;;;;5077320;28;21674;-78
2023/12/20 11:37:37;;;;;;;0.30;0.20;;;2.30;99.90;;;;;;5082096;28;20652;-76
2023/12/20 11:40:09;;;;;;;0.30;0.20;;;2.30;99.90;;;;;;5090587;28;20207;-76
2023/12/20 11:42:45;;;;;;;0.30;0.20;;;2.40;99.90;;;;;;5087503;28;20176;-76
2023/12/20 11:45:15;;;;;;;0.30;0.20;;;2.40;99.90;;;;;;5081283;28;20191;-76
2023/12/20 11:47:42;;;;;;;0.30;0.30;;;2.40;99.90;;;;;;5076151;28;20193;-76
2023/12/20 11:50:08;;;;;;;0.30;0.30;;;2.40;99.90;;;;;;5053920;28;20187;-77
2023/12/20 11:52:33;;;;;;;0.30;0.20;;;2.40;99.90;;;;;;5061490;28;20176;-76
2023/12/20 11:54:59;;;;;;;0.30;0.20;;;2.40;99.90;;;;;;5067115;28;20499;-76
2023/12/20 11:57:25;;;;;;;0.30;0.20;;;2.40;99.90;;;;;;5052862;28;20192;-76
2023/12/20 11:59:51;;;;;;;0.30;0.30;;;2.40;99.90;;;;;;5057596;28;20318;-77
2023/12/20 12:02:17;;;;;;;0.30;0.20;;;2.40;99.90;;;;;;5077418;28;20825;-77
2023/12/20 12:04:42;;;;;;;0.30;0.20;;;2.40;99.90;;;;;;5079844;28;20199;-77
2023/12/20 12:07:08;;;;;;;0.30;0.30;;;2.40;99.90;;;;;;5078806;28;20472;-77
2023/12/20 12:09:35;;;;;;;0.37;0.33;;;2.40;99.90;;;;;;5083790;28;20687;-77
2023/12/20 12:12:01;;;;;;;0.30;0.25;;;2.50;99.90;;;;;;5062763;28;20251;-77
2023/12/20 12:14:27;;;;;;;0.30;0.20;;;2.50;99.90;;;;;;5065674;28;20737;-77
2023/12/20 12:16:53;;;;;;;0.30;0.20;;;2.50;99.90;;;;;;5057482;28;21455;-77
2023/12/20 12:19:26;;;;;;;0.30;0.20;;;2.60;99.90;;;;;;5086059;28;20232;-77
2023/12/20 12:22:10;;;;;;;0.30;0.30;;;2.60;99.90;;;;;;5082573;28;20445;-77
2023/12/20 12:24:42;;;;;;;0.30;0.30;;;2.60;99.90;;;;;;5065251;28;20633;-78
2023/12/20 12:27:09;;;;;;;0.30;0.20;;;2.60;99.90;;;;;;5053060;28;20311;-76
2023/12/20 12:29:35;;;;;;;0.30;0.30;;;2.60;99.90;;;;;;5066053;28;20333;-76
2023/12/20 12:32:04;;;;;;;0.30;0.20;;;2.60;99.90;;;;;;5084214;28;20173;-76
2023/12/20 12:34:30;;;;;;;0.30;0.20;;;2.70;99.90;;;;;;5093682;27;20582;-76
2023/12/20 12:36:57;;;;;;;0.30;0.20;;;2.70;99.90;;;;;;5074311;28;20191;-77
2023/12/20 12:39:27;;;;;;;0.30;0.20;;;2.70;99.90;;;;;;5072484;28;20459;-77
2023/12/20 12:41:53;;;;;;;0.30;0.30;;;2.70;99.90;;;;;;5071608;28;20188;-77
2023/12/20 12:44:20;;;;;;;0.30;0.30;;;2.70;99.90;;;;;;5075108;27;20696;-77
2023/12/20 12:46:46;;;;;;;0.30;0.30;;;2.70;99.90;;;;;;5047521;28;20173;-76
2023/12/20 12:49:12;;;;;;;0.30;0.20;;;2.70;99.90;;;;;;5045560;28;20256;-76
2023/12/20 12:51:38;;;;;;;0.30;0.22;;;2.70;99.90;;;;;;5047274;28;20198;-76
2023/12/20 12:54:04;;;;;;;0.30;0.20;;;2.70;99.90;;;;;;5048784;28;20228;-76